Aérodrome :
LOGIN :

S'inscrire | Disclaimer

   EN    FR    IT 

 










Légende :    VFR   VFR Marginal   IFR   IFR Intensif   IFR Très Intensif
Visi : 
Plafond : 
>= 8 km
>= 3000ft
5 à 8 km
1000 à 3000 ft
1500m à 5 km
500 à 1000 ft
800 à 1500m
200 à 500 ft
< 800m
< 200 ft
Symboles :   Orages  Brouillard  Fortes neiges  Fortes précipitations  Vent > 20 kt
SIGMETs :   Divers  Orages  Givrage  Turbulence  Onde Orograph.  Cendres Volcan.







- Altitude de l'aérodrome : 297 ft
- Code IATA : UIP
- Voir les cartes d'approche


LFRQ - Quimper Pluguffan

DERNIER METAR :
  • 172300Z AUTO 18007KT 3300 RA BR BKN004 OVC009 09/08 Q1023 TEMPO DZ OVC005

METARs EXPIRÉS :
  • 172230Z AUTO 18007KT 3800 RA BR BKN004/// OVC014/// ///TCU 09/08 Q1023 TEMPO DZ OVC005
  • 172200Z AUTO 19007KT 160V220 5000 RA BR FEW004/// SCT009/// BKN013/// ///TCU 09/08 Q1023 TEMPO DZ OVC005
  • 172130Z AUTO 18006KT 7000 -RA SCT018 BKN024 BKN032 08/08 Q1024 TEMPO 3000 DZ OVC005
  • 172100Z AUTO 18005KT 7000 -RA SCT020 SCT030 BKN049 08/07 Q1024 TEMPO 3000 DZ OVC005
  • 172030Z AUTO 18004KT 9000 -RA SCT019/// SCT026/// BKN041/// ///TCU 08/07 Q1024 TEMPO 3000 DZ OVC005

TAF AMD TAF LFRQ
Valide du 17 à 18h jusqu'au 18 à 03h UTC


171748Z 1718/1803 26006KT 9999 FEW023
BECMG 1721/1724 BKN015
TEMPO 1721/1803 18010KT 3000 DZ OVC005
Pas de NOTAMs connus pour ce terrain.



MET'MAP, la Météo Aéronautique d'un coup d'oeil ! - Copyright ORBIFLY Décembre 2007 - Disclaimer

ORBIFLY MET'MAP TEAM :

Programmation & Développement : Alexandra Zaïnal
Conception & Développement : Baudouin d'Aumeries
Co-Programmation & Développement : Marc-Olivier Méhu
Soutien technique & logistique : Manuel Goepfert

Contact : metmap@orbifly.com




SOURCES & CREDITS :

   NOAA